sensor_id;sensor_type;location;lat;lon;timestamp;pressure;altitude;pressure_sealevel;temperature;humidity
40592;BME280;26301;42.832;23.918;2023-04-01T00:00:21;92323.78;;;11.99;48.51
40592;BME280;26301;42.832;23.918;2023-04-01T00:02:47;92308.78;;;11.91;47.78
40592;BME280;26301;42.832;23.918;2023-04-01T00:05:13;92316.03;;;11.89;49.00
40592;BME280;26301;42.832;23.918;2023-04-01T00:07:40;92308.25;;;11.84;46.91
40592;BME280;26301;42.832;23.918;2023-04-01T00:10:07;92317.06;;;11.88;48.69
40592;BME280;26301;42.832;23.918;2023-04-01T00:12:34;92310.34;;;11.92;48.42
40592;BME280;26301;42.832;23.918;2023-04-01T00:15:00;92303.88;;;11.89;48.85
40592;BME280;26301;42.832;23.918;2023-04-01T00:17:26;92319.94;;;11.92;48.83
40592;BME280;26301;42.832;23.918;2023-04-01T00:19:54;92305.16;;;11.82;50.04
40592;BME280;26301;42.832;23.918;2023-04-01T00:22:19;92320.94;;;11.90;49.98
40592;BME280;26301;42.832;23.918;2023-04-01T00:24:45;92325.88;;;11.87;51.37
40592;BME280;26301;42.832;23.918;2023-04-01T00:27:10;92324.81;;;11.83;49.77
40592;BME280;26301;42.832;23.918;2023-04-01T00:29:36;92302.34;;;11.63;48.52
40592;BME280;26301;42.832;23.918;2023-04-01T00:32:02;92295.88;;;11.60;51.94
40592;BME280;26301;42.832;23.918;2023-04-01T00:34:27;92316.06;;;11.74;52.21
40592;BME280;26301;42.832;23.918;2023-04-01T00:36:53;92291.22;;;11.67;51.35
40592;BME280;26301;42.832;23.918;2023-04-01T00:39:20;92317.06;;;11.73;52.66
40592;BME280;26301;42.832;23.918;2023-04-01T00:41:46;92294.06;;;11.71;50.97
40592;BME280;26301;42.832;23.918;2023-04-01T00:44:21;92289.94;;;11.60;53.31
40592;BME280;26301;42.832;23.918;2023-04-01T00:46:47;92303.66;;;11.55;54.52
40592;BME280;26301;42.832;23.918;2023-04-01T00:49:14;92288.16;;;11.50;54.67
40592;BME280;26301;42.832;23.918;2023-04-01T00:51:42;92267.47;;;11.45;54.07
40592;BME280;26301;42.832;23.918;2023-04-01T00:54:09;92293.56;;;11.54;55.00
40592;BME280;26301;42.832;23.918;2023-04-01T00:56:37;92298.47;;;11.40;55.79
40592;BME280;26301;42.832;23.918;2023-04-01T00:59:14;92276.53;;;11.22;57.68
40592;BME280;26301;42.832;23.918;2023-04-01T01:01:41;92273.94;;;11.12;58.69
40592;BME280;26301;42.832;23.918;2023-04-01T01:04:18;92288.94;;;11.25;52.71
40592;BME280;26301;42.832;23.918;2023-04-01T01:12:22;92273.94;;;11.27;59.33
40592;BME280;26301;42.832;23.918;2023-04-01T01:15:02;92268.25;;;11.25;56.66
40592;BME280;26301;42.832;23.918;2023-04-01T01:20:33;92271.88;;;11.19;56.41
40592;BME280;26301;42.832;23.918;2023-04-01T01:23:16;92265.94;;;11.29;54.47
40592;BME280;26301;42.832;23.918;2023-04-01T01:37:17;92252.50;;;10.86;61.02
40592;BME280;26301;42.832;23.918;2023-04-01T01:39:54;92254.03;;;10.82;61.11
40592;BME280;26301;42.832;23.918;2023-04-01T01:42:22;92256.66;;;10.87;61.16
40592;BME280;26301;42.832;23.918;2023-04-01T01:44:50;92249.13;;;10.70;60.49
40592;BME280;26301;42.832;23.918;2023-04-01T01:47:18;92242.66;;;10.67;61.47
40592;BME280;26301;42.832;23.918;2023-04-01T01:49:45;92240.59;;;10.64;60.57
40592;BME280;26301;42.832;23.918;2023-04-01T01:52:12;92238.03;;;10.69;53.69
40592;BME280;26301;42.832;23.918;2023-04-01T01:54:58;92240.38;;;10.81;58.14
40592;BME280;26301;42.832;23.918;2023-04-01T01:57:30;92218.91;;;10.60;59.34
40592;BME280;26301;42.832;23.918;2023-04-01T02:00:07;92230.28;;;10.69;60.91
40592;BME280;26301;42.832;23.918;2023-04-01T02:02:42;92217.59;;;10.52;61.17
40592;BME280;26301;42.832;23.918;2023-04-01T02:05:17;92233.38;;;10.66;62.06
40592;BME280;26301;42.832;23.918;2023-04-01T02:07:48;92217.09;;;10.61;62.43
40592;BME280;26301;42.832;23.918;2023-04-01T02:10:16;92221.50;;;10.60;63.57
40592;BME280;26301;42.832;23.918;2023-04-01T02:12:45;92227.69;;;10.59;63.35
40592;BME280;26301;42.832;23.918;2023-04-01T02:15:13;92233.34;;;10.46;62.65
40592;BME280;26301;42.832;23.918;2023-04-01T02:17:43;92208.50;;;10.24;63.43
40592;BME280;26301;42.832;23.918;2023-04-01T02:20:22;92222.75;;;10.32;64.20
40592;BME280;26301;42.832;23.918;2023-04-01T02:22:54;92223.25;;;10.29;66.53
40592;BME280;26301;42.832;23.918;2023-04-01T02:25:24;92217.78;;;10.20;62.18
40592;BME280;26301;42.832;23.918;2023-04-01T02:27:52;92207.97;;;10.12;66.03
40592;BME280;26301;42.832;23.918;2023-04-01T02:30:19;92202.28;;;10.05;66.30
40592;BME280;26301;42.832;23.918;2023-04-01T02:32:46;92165.03;;;9.75;65.56
40592;BME280;26301;42.832;23.918;2023-04-01T02:35:13;92149.81;;;9.69;67.12
40592;BME280;26301;42.832;23.918;2023-04-01T02:37:40;92168.69;;;9.84;67.95
40592;BME280;26301;42.832;23.918;2023-04-01T02:40:09;92181.06;;;9.88;67.46
40592;BME280;26301;42.832;23.918;2023-04-01T02:42:35;92173.28;;;9.77;67.27
40592;BME280;26301;42.832;23.918;2023-04-01T02:45:01;92178.69;;;9.71;64.93
40592;BME280;26301;42.832;23.918;2023-04-01T02:47:27;92156.94;;;9.46;66.89
40592;BME280;26301;42.832;23.918;2023-04-01T02:49:52;92184.06;;;9.64;65.88
40592;BME280;26301;42.832;23.918;2023-04-01T02:52:29;92185.09;;;9.68;65.99
40592;BME280;26301;42.832;23.918;2023-04-01T02:54:55;92171.19;;;9.64;67.48
40592;BME280;26301;42.832;23.918;2023-04-01T02:57:23;92176.03;;;9.55;63.96
40592;BME280;26301;42.832;23.918;2023-04-01T02:59:48;92172.47;;;9.61;67.56
40592;BME280;26301;42.832;23.918;2023-04-01T03:02:15;92183.81;;;9.60;67.15
40592;BME280;26301;42.832;23.918;2023-04-01T03:04:41;92178.88;;;9.59;68.24
40592;BME280;26301;42.832;23.918;2023-04-01T03:07:07;92179.38;;;9.56;68.51
40592;BME280;26301;42.832;23.918;2023-04-01T03:09:33;92188.69;;;9.57;68.65
40592;BME280;26301;42.832;23.918;2023-04-01T03:11:59;92172.44;;;9.56;68.14
40592;BME280;26301;42.832;23.918;2023-04-01T03:14:25;92182.28;;;9.70;68.65
40592;BME280;26301;42.832;23.918;2023-04-01T03:16:51;92179.44;;;9.71;68.09
40592;BME280;26301;42.832;23.918;2023-04-01T03:19:16;92153.63;;;9.61;67.50
40592;BME280;26301;42.832;23.918;2023-04-01T03:21:42;92185.91;;;9.69;68.18
40592;BME280;26301;42.832;23.918;2023-04-01T03:24:07;92190.97;;;9.53;67.28
40592;BME280;26301;42.832;23.918;2023-04-01T03:26:33;92192.00;;;9.52;66.39
40592;BME280;26301;42.832;23.918;2023-04-01T03:28:59;92187.13;;;9.56;66.29
40592;BME280;26301;42.832;23.918;2023-04-01T03:31:25;92162.09;;;9.46;63.61
40592;BME280;26301;42.832;23.918;2023-04-01T03:33:51;92159.03;;;9.54;59.81
40592;BME280;26301;42.832;23.918;2023-04-01T03:36:17;92157.25;;;9.65;62.34
40592;BME280;26301;42.832;23.918;2023-04-01T03:38:44;92155.50;;;9.86;52.67
40592;BME280;26301;42.832;23.918;2023-04-01T03:41:14;92168.72;;;10.05;56.12
40592;BME280;26301;42.832;23.918;2023-04-01T03:43:41;92156.34;;;10.02;52.16
40592;BME280;26301;42.832;23.918;2023-04-01T03:46:07;92149.41;;;10.18;55.00
40592;BME280;26301;42.832;23.918;2023-04-01T03:48:33;92158.72;;;10.49;49.09
40592;BME280;26301;42.832;23.918;2023-04-01T03:50:59;92166.22;;;10.66;50.99
40592;BME280;26301;42.832;23.918;2023-04-01T03:53:25;92175.78;;;10.71;52.78
40592;BME280;26301;42.832;23.918;2023-04-01T03:55:52;92175.53;;;10.78;50.24
40592;BME280;26301;42.832;23.918;2023-04-01T03:58:18;92147.91;;;10.63;51.96
40592;BME280;26301;42.832;23.918;2023-04-01T04:00:43;92171.66;;;10.90;47.96
40592;BME280;26301;42.832;23.918;2023-04-01T04:03:09;92160.78;;;10.88;48.82
40592;BME280;26301;42.832;23.918;2023-04-01T04:05:35;92141.66;;;10.99;47.74
40592;BME280;26301;42.832;23.918;2023-04-01T04:08:01;92166.97;;;11.08;50.23
40592;BME280;26301;42.832;23.918;2023-04-01T04:10:26;92163.34;;;11.04;50.08
40592;BME280;26301;42.832;23.918;2023-04-01T04:12:54;92143.47;;;10.99;48.35
40592;BME280;26301;42.832;23.918;2023-04-01T04:15:20;92137.53;;;10.98;48.10
40592;BME280;26301;42.832;23.918;2023-04-01T04:17:46;92137.78;;;11.07;49.24
40592;BME280;26301;42.832;23.918;2023-04-01T04:20:12;92146.78;;;11.10;47.11
40592;BME280;26301;42.832;23.918;2023-04-01T04:22:38;92158.91;;;11.25;49.28
40592;BME280;26301;42.832;23.918;2023-04-01T04:25:04;92141.88;;;11.18;47.32
40592;BME280;26301;42.832;23.918;2023-04-01T04:27:30;92145.22;;;11.19;48.43
40592;BME280;26301;42.832;23.918;2023-04-01T04:29:55;92140.81;;;11.25;46.68
40592;BME280;26301;42.832;23.918;2023-04-01T04:32:21;92147.75;;;11.39;46.57
40592;BME280;26301;42.832;23.918;2023-04-01T04:34:46;92147.75;;;11.39;47.52
40592;BME280;26301;42.832;23.918;2023-04-01T04:37:12;92149.84;;;11.37;47.25
40592;BME280;26301;42.832;23.918;2023-04-01T04:39:37;92147.00;;;11.39;47.08
40592;BME280;26301;42.832;23.918;2023-04-01T04:42:03;92139.19;;;11.49;47.50
40592;BME280;26301;42.832;23.918;2023-04-01T04:44:29;92130.94;;;11.52;47.26
40592;BME280;26301;42.832;23.918;2023-04-01T04:46:54;92106.91;;;11.41;45.95
40592;BME280;26301;42.832;23.918;2023-04-01T04:49:20;92095.28;;;11.39;46.51
40592;BME280;26301;42.832;23.918;2023-04-01T04:51:46;92113.06;;;11.56;48.79
40592;BME280;26301;42.832;23.918;2023-04-01T04:54:12;92114.13;;;11.50;46.31
40592;BME280;26301;42.832;23.918;2023-04-01T04:56:37;92106.38;;;11.44;47.75
40592;BME280;26301;42.832;23.918;2023-04-01T04:59:03;92107.13;;;11.50;47.72
40592;BME280;26301;42.832;23.918;2023-04-01T05:01:29;92097.50;;;11.61;47.70
40592;BME280;26301;42.832;23.918;2023-04-01T05:03:54;92081.28;;;11.45;49.88
40592;BME280;26301;42.832;23.918;2023-04-01T05:06:20;92086.97;;;11.52;52.54
40592;BME280;26301;42.832;23.918;2023-04-01T05:08:45;92071.47;;;11.42;51.93
40592;BME280;26301;42.832;23.918;2023-04-01T05:11:14;92062.72;;;11.38;52.96
40592;BME280;26301;42.832;23.918;2023-04-01T05:13:40;92079.47;;;11.45;54.15
40592;BME280;26301;42.832;23.918;2023-04-01T05:16:14;92087.47;;;11.49;55.48
40592;BME280;26301;42.832;23.918;2023-04-01T05:18:40;92082.31;;;11.49;56.86
40592;BME280;26301;42.832;23.918;2023-04-01T05:21:08;92077.19;;;11.39;56.35
40592;BME280;26301;42.832;23.918;2023-04-01T05:23:34;92076.13;;;11.45;58.37
40592;BME280;26301;42.832;23.918;2023-04-01T05:26:04;92069.19;;;11.40;59.42
40592;BME280;26301;42.832;23.918;2023-04-01T05:28:30;92067.38;;;11.36;60.26
40592;BME280;26301;42.832;23.918;2023-04-01T05:30:58;92054.22;;;11.27;57.43
40592;BME280;26301;42.832;23.918;2023-04-01T05:33:25;92042.59;;;11.25;61.86
40592;BME280;26301;42.832;23.918;2023-04-01T05:35:50;92038.47;;;11.24;59.47
40592;BME280;26301;42.832;23.918;2023-04-01T05:38:16;92034.59;;;11.21;59.26
40592;BME280;26301;42.832;23.918;2023-04-01T05:40:42;92012.94;;;11.07;58.34
40592;BME280;26301;42.832;23.918;2023-04-01T05:43:07;92023.78;;;11.14;62.10
40592;BME280;26301;42.832;23.918;2023-04-01T05:45:34;91993.31;;;11.06;61.29
40592;BME280;26301;42.832;23.918;2023-04-01T05:47:59;91987.63;;;11.04;59.81
40592;BME280;26301;42.832;23.918;2023-04-01T05:50:25;92003.13;;;11.14;61.71
40592;BME280;26301;42.832;23.918;2023-04-01T05:52:50;91967.53;;;10.95;62.30
40592;BME280;26301;42.832;23.918;2023-04-01T05:55:16;91993.78;;;11.18;63.77
40592;BME280;26301;42.832;23.918;2023-04-01T05:57:41;91989.91;;;11.15;61.00
40592;BME280;26301;42.832;23.918;2023-04-01T06:00:07;91977.75;;;11.16;58.96
40592;BME280;26301;42.832;23.918;2023-04-01T06:02:33;91989.13;;;11.20;64.10
40592;BME280;26301;42.832;23.918;2023-04-01T06:05:23;91999.19;;;11.27;63.83
40592;BME280;26301;42.832;23.918;2023-04-01T06:07:51;91981.69;;;11.13;59.38
40592;BME280;26301;42.832;23.918;2023-04-01T06:10:21;91988.63;;;11.18;60.17
40592;BME280;26301;42.832;23.918;2023-04-01T06:13:10;91993.47;;;11.30;61.39
40592;BME280;26301;42.832;23.918;2023-04-01T06:15:57;91984.41;;;11.37;50.59
40592;BME280;26301;42.832;23.918;2023-04-01T06:24:20;91991.78;;;11.94;44.28
40592;BME280;26301;42.832;23.918;2023-04-01T06:29:44;91978.91;;;12.18;44.00
40592;BME280;26301;42.832;23.918;2023-04-01T06:32:37;91994.00;;;12.40;43.54
40592;BME280;26301;42.832;23.918;2023-04-01T06:40:37;91985.97;;;12.89;43.46
40592;BME280;26301;42.832;23.918;2023-04-01T06:48:39;91996.59;;;13.36;41.41
40592;BME280;26301;42.832;23.918;2023-04-01T06:56:19;91999.13;;;13.79;41.05
40592;BME280;26301;42.832;23.918;2023-04-01T06:58:50;91997.38;;;13.93;42.02
40592;BME280;26301;42.832;23.918;2023-04-01T07:01:22;91991.09;;;13.94;44.22
40592;BME280;26301;42.832;23.918;2023-04-01T07:04:05;91983.88;;;13.91;42.49
40592;BME280;26301;42.832;23.918;2023-04-01T07:06:34;92010.00;;;14.13;42.67
40592;BME280;26301;42.832;23.918;2023-04-01T07:09:11;91988.66;;;14.03;43.59
40592;BME280;26301;42.832;23.918;2023-04-01T07:11:40;91984.22;;;14.03;42.23
40592;BME280;26301;42.832;23.918;2023-04-01T07:14:20;91973.13;;;13.98;42.36
40592;BME280;26301;42.832;23.918;2023-04-01T07:17:09;91992.91;;;14.12;41.49
40592;BME280;26301;42.832;23.918;2023-04-01T07:19:45;91988.97;;;14.15;41.61
40592;BME280;26301;42.832;23.918;2023-04-01T07:22:31;91979.72;;;14.09;41.47
40592;BME280;26301;42.832;23.918;2023-04-01T07:25:02;91987.38;;;14.00;43.65
40592;BME280;26301;42.832;23.918;2023-04-01T07:27:30;91955.91;;;13.88;43.02
40592;BME280;26301;42.832;23.918;2023-04-01T07:29:57;91978.94;;;14.08;43.23
40592;BME280;26301;42.832;23.918;2023-04-01T07:38:05;91953.25;;;14.07;44.03
40592;BME280;26301;42.832;23.918;2023-04-01T07:41:05;91962.53;;;14.59;41.71
40592;BME280;26301;42.832;23.918;2023-04-01T07:48:55;91956.81;;;15.26;44.88
40592;BME280;26301;42.832;23.918;2023-04-01T08:02:54;91907.41;;;16.79;38.32
40592;BME280;26301;42.832;23.918;2023-04-01T08:05:28;91894.22;;;16.92;39.17
40592;BME280;26301;42.832;23.918;2023-04-01T08:11:08;91919.28;;;17.20;37.62
40592;BME280;26301;42.832;23.918;2023-04-01T08:14:08;91915.41;;;17.00;35.57
40592;BME280;26301;42.832;23.918;2023-04-01T08:17:07;91899.63;;;17.05;35.38
40592;BME280;26301;42.832;23.918;2023-04-01T08:22:38;91895.78;;;17.02;35.75
40592;BME280;26301;42.832;23.918;2023-04-01T08:25:06;91905.16;;;17.03;35.23
40592;BME280;26301;42.832;23.918;2023-04-01T08:27:45;91915.91;;;17.10;36.22
40592;BME280;26301;42.832;23.918;2023-04-01T08:30:28;91907.91;;;16.98;36.65
40592;BME280;26301;42.832;23.918;2023-04-01T08:33:00;91933.81;;;16.95;36.98
40592;BME280;26301;42.832;23.918;2023-04-01T08:35:37;91924.63;;;16.97;37.55
40592;BME280;26301;42.832;23.918;2023-04-01T08:38:12;91919.91;;;17.17;36.07
40592;BME280;26301;42.832;23.918;2023-04-01T08:40:58;91927.44;;;17.35;37.92
40592;BME280;26301;42.832;23.918;2023-04-01T08:48:23;91911.03;;;17.52;36.14
40592;BME280;26301;42.832;23.918;2023-04-01T08:56:20;91880.47;;;17.70;37.03
40592;BME280;26301;42.832;23.918;2023-04-01T09:02:05;91855.41;;;17.95;34.19
40592;BME280;26301;42.832;23.918;2023-04-01T09:24:38;91845.13;;;18.76;33.38
40592;BME280;26301;42.832;23.918;2023-04-01T09:33:17;91822.41;;;18.59;33.67
40592;BME280;26301;42.832;23.918;2023-04-01T09:46:16;91818.09;;;18.33;33.42
40592;BME280;26301;42.832;23.918;2023-04-01T10:12:03;91810.31;;;17.60;35.88
40592;BME280;26301;42.832;23.918;2023-04-01T11:05:16;91746.94;;;16.64;37.74
40592;BME280;26301;42.832;23.918;2023-04-01T11:33:01;91696.47;;;16.42;40.37
40592;BME280;26301;42.832;23.918;2023-04-01T11:38:53;91694.63;;;16.43;37.64
40592;BME280;26301;42.832;23.918;2023-04-01T11:41:43;91696.16;;;16.44;37.75
40592;BME280;26301;42.832;23.918;2023-04-01T11:44:17;91689.88;;;16.45;38.09
40592;BME280;26301;42.832;23.918;2023-04-01T11:55:28;91668.75;;;16.55;38.25
40592;BME280;26301;42.832;23.918;2023-04-01T12:21:05;91769.28;;;14.41;45.50
40592;BME280;26301;42.832;23.918;2023-04-01T12:23:46;91758.19;;;14.00;47.45
40592;BME280;26301;42.832;23.918;2023-04-01T12:43:51;91952.22;;;11.54;84.50
40592;BME280;26301;42.832;23.918;2023-04-01T13:09:55;91909.41;;;11.72;83.55
40592;BME280;26301;42.832;23.918;2023-04-01T13:28:22;91940.03;;;12.23;88.60
40592;BME280;26301;42.832;23.918;2023-04-01T13:50:37;91809.69;;;11.60;72.49
40592;BME280;26301;42.832;23.918;2023-04-01T14:20:14;91764.13;;;12.55;80.81
40592;BME280;26301;42.832;23.918;2023-04-01T14:34:51;91749.97;;;12.67;67.65
40592;BME280;26301;42.832;23.918;2023-04-01T14:40:34;91729.09;;;12.77;68.97
40592;BME280;26301;42.832;23.918;2023-04-01T14:52:16;91714.84;;;12.93;64.15
40592;BME280;26301;42.832;23.918;2023-04-01T14:54:48;91682.84;;;12.84;65.07
40592;BME280;26301;42.832;23.918;2023-04-01T15:08:05;91685.00;;;12.96;62.88
40592;BME280;26301;42.832;23.918;2023-04-01T15:18:53;91671.66;;;12.37;61.92
40592;BME280;26301;42.832;23.918;2023-04-01T15:21:55;91705.47;;;12.46;63.03
40592;BME280;26301;42.832;23.918;2023-04-01T15:30:33;91728.75;;;12.27;68.75
40592;BME280;26301;42.832;23.918;2023-04-01T15:33:13;91736.59;;;12.22;66.33
40592;BME280;26301;42.832;23.918;2023-04-01T15:41:03;91752.31;;;12.06;67.63
40592;BME280;26301;42.832;23.918;2023-04-01T15:43:49;91724.53;;;11.93;66.41
40592;BME280;26301;42.832;23.918;2023-04-01T15:46:41;91747.00;;;11.98;67.32
40592;BME280;26301;42.832;23.918;2023-04-01T15:49:43;91747.00;;;11.98;67.03
40592;BME280;26301;42.832;23.918;2023-04-01T15:52:23;91756.34;;;11.94;65.45
40592;BME280;26301;42.832;23.918;2023-04-01T16:12:07;91785.94;;;11.82;65.05
40592;BME280;26301;42.832;23.918;2023-04-01T16:20:20;91764.22;;;11.78;73.22
40592;BME280;26301;42.832;23.918;2023-04-01T16:23:03;91756.84;;;11.66;68.56
40592;BME280;26301;42.832;23.918;2023-04-01T16:25:53;91775.72;;;11.67;70.07
40592;BME280;26301;42.832;23.918;2023-04-01T16:28:32;91798.47;;;11.41;76.31
40592;BME280;26301;42.832;23.918;2023-04-01T16:34:25;91948.16;;;10.02;77.88
40592;BME280;26301;42.832;23.918;2023-04-01T16:37:11;91931.88;;;9.20;79.36
40592;BME280;26301;42.832;23.918;2023-04-01T16:48:00;91953.78;;;8.39;85.41
40592;BME280;26301;42.832;23.918;2023-04-01T16:58:23;91952.34;;;7.79;87.16
40592;BME280;26301;42.832;23.918;2023-04-01T17:01:00;91943.63;;;7.80;90.20
40592;BME280;26301;42.832;23.918;2023-04-01T17:03:36;91908.69;;;7.84;88.57
40592;BME280;26301;42.832;23.918;2023-04-01T17:11:40;91907.22;;;7.98;90.46
40592;BME280;26301;42.832;23.918;2023-04-01T17:22:55;91902.91;;;7.62;88.54
40592;BME280;26301;42.832;23.918;2023-04-01T17:28:31;91903.50;;;7.79;82.43
40592;BME280;26301;42.832;23.918;2023-04-01T17:31:31;91911.22;;;7.79;80.15
40592;BME280;26301;42.832;23.918;2023-04-01T17:37:11;91905.97;;;7.59;75.65
40592;BME280;26301;42.832;23.918;2023-04-01T17:42:22;91949.47;;;7.70;76.26
40592;BME280;26301;42.832;23.918;2023-04-01T17:47:52;91975.25;;;7.81;77.23
40592;BME280;26301;42.832;23.918;2023-04-01T17:50:36;91977.16;;;7.95;75.27
40592;BME280;26301;42.832;23.918;2023-04-01T17:53:32;91961.22;;;7.61;76.06
40592;BME280;26301;42.832;23.918;2023-04-01T17:58:59;91993.66;;;7.67;76.85
40592;BME280;26301;42.832;23.918;2023-04-01T18:04:26;92001.03;;;7.59;78.27
40592;BME280;26301;42.832;23.918;2023-04-01T18:10:03;92001.94;;;7.74;79.27
40592;BME280;26301;42.832;23.918;2023-04-01T18:18:17;91982.38;;;7.41;78.25
40592;BME280;26301;42.832;23.918;2023-04-01T18:21:15;92000.78;;;7.60;80.23
40592;BME280;26301;42.832;23.918;2023-04-01T18:23:58;92000.00;;;7.60;82.65
40592;BME280;26301;42.832;23.918;2023-04-01T18:26:45;92006.94;;;7.59;83.45
40592;BME280;26301;42.832;23.918;2023-04-01T18:31:55;91990.28;;;7.35;83.21
40592;BME280;26301;42.832;23.918;2023-04-01T18:35:02;92012.31;;;7.30;82.32
40592;BME280;26301;42.832;23.918;2023-04-01T18:37:50;92002.66;;;7.16;78.83
40592;BME280;26301;42.832;23.918;2023-04-01T18:43:08;92028.47;;;7.26;82.59
40592;BME280;26301;42.832;23.918;2023-04-01T18:45:40;92030.63;;;7.12;80.04
40592;BME280;26301;42.832;23.918;2023-04-01T18:48:16;92042.97;;;7.15;78.54
40592;BME280;26301;42.832;23.918;2023-04-01T18:50:58;92047.41;;;6.98;79.28
40592;BME280;26301;42.832;23.918;2023-04-01T18:53:48;92079.97;;;6.92;76.48
40592;BME280;26301;42.832;23.918;2023-04-01T18:56:34;92052.78;;;6.74;76.94
40592;BME280;26301;42.832;23.918;2023-04-01T18:59:28;92057.09;;;6.69;77.79
40592;BME280;26301;42.832;23.918;2023-04-01T19:02:31;92077.13;;;6.72;76.43
40592;BME280;26301;42.832;23.918;2023-04-01T19:05:07;92106.22;;;6.77;76.98
40592;BME280;26301;42.832;23.918;2023-04-01T19:07:47;92119.53;;;6.74;77.16
40592;BME280;26301;42.832;23.918;2023-04-01T19:21:29;92106.31;;;6.49;78.45
40592;BME280;26301;42.832;23.918;2023-04-01T19:24:09;92086.13;;;6.35;78.58
40592;BME280;26301;42.832;23.918;2023-04-01T19:37:39;92086.97;;;6.07;80.35
40592;BME280;26301;42.832;23.918;2023-04-01T19:45:34;92114.63;;;6.22;81.38
40592;BME280;26301;42.832;23.918;2023-04-01T19:51:24;92117.44;;;6.21;81.00
40592;BME280;26301;42.832;23.918;2023-04-01T19:54:19;92112.31;;;6.21;80.72
40592;BME280;26301;42.832;23.918;2023-04-01T19:56:56;92111.94;;;6.29;80.30
40592;BME280;26301;42.832;23.918;2023-04-01T20:04:43;92097.94;;;6.03;80.69
40592;BME280;26301;42.832;23.918;2023-04-01T20:07:28;92118.75;;;6.06;80.29
40592;BME280;26301;42.832;23.918;2023-04-01T20:10:20;92129.72;;;6.18;78.06
40592;BME280;26301;42.832;23.918;2023-04-01T20:18:01;92150.78;;;6.21;77.61
40592;BME280;26301;42.832;23.918;2023-04-01T20:20:30;92122.00;;;6.02;76.49
40592;BME280;26301;42.832;23.918;2023-04-01T20:23:06;92154.03;;;6.16;78.33
40592;BME280;26301;42.832;23.918;2023-04-01T20:25:46;92126.34;;;6.01;77.12
40592;BME280;26301;42.832;23.918;2023-04-01T20:36:30;92148.91;;;6.16;73.51
40592;BME280;26301;42.832;23.918;2023-04-01T20:42:13;92165.00;;;6.11;75.37
40592;BME280;26301;42.832;23.918;2023-04-01T20:45:14;92166.31;;;6.14;73.93
40592;BME280;26301;42.832;23.918;2023-04-01T20:51:30;92153.03;;;6.17;75.10
40592;BME280;26301;42.832;23.918;2023-04-01T21:00:19;92141.50;;;6.19;74.44
40592;BME280;26301;42.832;23.918;2023-04-01T21:13:51;92146.75;;;6.25;74.35
40592;BME280;26301;42.832;23.918;2023-04-01T21:28:50;92149.38;;;6.13;75.89
40592;BME280;26301;42.832;23.918;2023-04-01T21:31:48;92126.34;;;6.01;75.29
40592;BME280;26301;42.832;23.918;2023-04-01T21:50:45;92150.94;;;6.14;74.82
40592;BME280;26301;42.832;23.918;2023-04-01T21:53:40;92135.88;;;6.17;73.83
40592;BME280;26301;42.832;23.918;2023-04-01T21:56:44;92147.44;;;6.20;74.12
40592;BME280;26301;42.832;23.918;2023-04-01T22:04:56;92153.81;;;6.17;74.20
40592;BME280;26301;42.832;23.918;2023-04-01T22:15:52;92151.78;;;6.19;73.94
40592;BME280;26301;42.832;23.918;2023-04-01T22:24:32;92163.13;;;6.24;73.94
40592;BME280;26301;42.832;23.918;2023-04-01T22:27:43;92169.03;;;6.24;73.90
40592;BME280;26301;42.832;23.918;2023-04-01T22:30:29;92170.47;;;6.32;73.45
40592;BME280;26301;42.832;23.918;2023-04-01T22:33:14;92173.84;;;6.37;73.39
40592;BME280;26301;42.832;23.918;2023-04-01T22:35:57;92174.97;;;6.41;73.77
40592;BME280;26301;42.832;23.918;2023-04-01T22:41:36;92172.25;;;6.48;72.15
40592;BME280;26301;42.832;23.918;2023-04-01T22:44:16;92160.66;;;6.46;71.13
40592;BME280;26301;42.832;23.918;2023-04-01T22:50:03;92192.91;;;6.41;71.47
40592;BME280;26301;42.832;23.918;2023-04-01T22:52:44;92174.63;;;6.21;71.65
40592;BME280;26301;42.832;23.918;2023-04-01T22:55:17;92174.84;;;6.19;72.56
40592;BME280;26301;42.832;23.918;2023-04-01T23:00:45;92179.22;;;6.19;73.30
40592;BME280;26301;42.832;23.918;2023-04-01T23:03:19;92175.09;;;6.18;72.02
40592;BME280;26301;42.832;23.918;2023-04-01T23:06:01;92178.13;;;6.15;73.32
40592;BME280;26301;42.832;23.918;2023-04-01T23:08:59;92180.84;;;6.08;73.21
40592;BME280;26301;42.832;23.918;2023-04-01T23:11:32;92152.47;;;5.86;73.05
40592;BME280;26301;42.832;23.918;2023-04-01T23:17:16;92187.66;;;6.03;73.03
40592;BME280;26301;42.832;23.918;2023-04-01T23:23:12;92195.97;;;6.10;74.80
40592;BME280;26301;42.832;23.918;2023-04-01T23:26:01;92199.69;;;6.02;73.85
40592;BME280;26301;42.832;23.918;2023-04-01T23:28:46;92214.28;;;6.02;74.54
40592;BME280;26301;42.832;23.918;2023-04-01T23:34:14;92199.50;;;5.80;73.88
40592;BME280;26301;42.832;23.918;2023-04-01T23:36:49;92222.69;;;5.97;74.77
40592;BME280;26301;42.832;23.918;2023-04-01T23:39:30;92212.41;;;5.97;76.17
40592;BME280;26301;42.832;23.918;2023-04-01T23:42:22;92235.22;;;6.10;75.93
40592;BME280;26301;42.832;23.918;2023-04-01T23:44:50;92233.97;;;6.13;76.75
40592;BME280;26301;42.832;23.918;2023-04-01T23:47:43;92233.44;;;6.11;76.97
40592;BME280;26301;42.832;23.918;2023-04-01T23:50:23;92230.53;;;6.07;77.66
40592;BME280;26301;42.832;23.918;2023-04-01T23:52:58;92212.88;;;5.94;78.16
40592;BME280;26301;42.832;23.918;2023-04-01T23:55:35;92206.06;;;5.88;77.91
